sensor_id;sensor_type;location;lat;lon;timestamp;temperature;humidity
4052;DHT22;2040;50.924;11.604;2023-08-06T00:01:49;15.60;99.90
4052;DHT22;2040;50.924;11.604;2023-08-06T00:04:15;15.50;99.90
4052;DHT22;2040;50.924;11.604;2023-08-06T00:06:41;15.30;99.90
4052;DHT22;2040;50.924;11.604;2023-08-06T00:09:06;15.40;99.90
4052;DHT22;2040;50.924;11.604;2023-08-06T00:11:32;15.40;99.90
4052;DHT22;2040;50.924;11.604;2023-08-06T00:13:57;15.40;99.90
4052;DHT22;2040;50.924;11.604;2023-08-06T00:16:23;15.50;99.90
4052;DHT22;2040;50.924;11.604;2023-08-06T00:18:49;15.50;99.90
4052;DHT22;2040;50.924;11.604;2023-08-06T00:21:14;15.50;99.90
4052;DHT22;2040;50.924;11.604;2023-08-06T00:23:42;15.50;99.90
4052;DHT22;2040;50.924;11.604;2023-08-06T00:26:07;15.40;99.90
4052;DHT22;2040;50.924;11.604;2023-08-06T00:28:33;15.50;99.90
4052;DHT22;2040;50.924;11.604;2023-08-06T00:30:58;15.40;99.90
4052;DHT22;2040;50.924;11.604;2023-08-06T00:33:24;15.40;99.90
4052;DHT22;2040;50.924;11.604;2023-08-06T00:35:50;15.10;99.90
4052;DHT22;2040;50.924;11.604;2023-08-06T00:38:16;15.10;99.90
4052;DHT22;2040;50.924;11.604;2023-08-06T00:40:42;15.00;99.90
4052;DHT22;2040;50.924;11.604;2023-08-06T00:43:09;15.00;99.90
4052;DHT22;2040;50.924;11.604;2023-08-06T00:45:35;14.90;99.90
4052;DHT22;2040;50.924;11.604;2023-08-06T00:48:03;14.90;99.90
4052;DHT22;2040;50.924;11.604;2023-08-06T00:50:30;15.00;99.90
4052;DHT22;2040;50.924;11.604;2023-08-06T00:52:56;14.90;99.90
4052;DHT22;2040;50.924;11.604;2023-08-06T00:55:22;14.90;99.90
4052;DHT22;2040;50.924;11.604;2023-08-06T00:57:48;14.90;99.90
4052;DHT22;2040;50.924;11.604;2023-08-06T01:00:13;14.90;99.90
4052;DHT22;2040;50.924;11.604;2023-08-06T01:02:39;14.90;99.90
4052;DHT22;2040;50.924;11.604;2023-08-06T01:05:05;14.90;99.90
4052;DHT22;2040;50.924;11.604;2023-08-06T01:13:11;14.90;99.90
4052;DHT22;2040;50.924;11.604;2023-08-06T01:15:43;14.80;99.90
4052;DHT22;2040;50.924;11.604;2023-08-06T01:18:11;14.80;99.90
4052;DHT22;2040;50.924;11.604;2023-08-06T01:20:37;14.80;99.90
4052;DHT22;2040;50.924;11.604;2023-08-06T01:23:02;14.70;99.90
4052;DHT22;2040;50.924;11.604;2023-08-06T01:25:41;14.60;99.90
4052;DHT22;2040;50.924;11.604;2023-08-06T01:28:20;14.50;99.90
4052;DHT22;2040;50.924;11.604;2023-08-06T01:30:49;14.40;99.90
4052;DHT22;2040;50.924;11.604;2023-08-06T01:33:19;14.40;99.90
4052;DHT22;2040;50.924;11.604;2023-08-06T01:35:48;14.40;99.90
4052;DHT22;2040;50.924;11.604;2023-08-06T01:38:15;14.40;99.90
4052;DHT22;2040;50.924;11.604;2023-08-06T01:40:40;14.50;99.90
4052;DHT22;2040;50.924;11.604;2023-08-06T01:43:06;14.60;99.90
4052;DHT22;2040;50.924;11.604;2023-08-06T01:45:32;14.50;99.90
4052;DHT22;2040;50.924;11.604;2023-08-06T01:47:57;14.50;99.90
4052;DHT22;2040;50.924;11.604;2023-08-06T01:50:23;14.60;99.90
4052;DHT22;2040;50.924;11.604;2023-08-06T01:52:48;14.60;99.90
4052;DHT22;2040;50.924;11.604;2023-08-06T01:55:14;14.60;99.90
4052;DHT22;2040;50.924;11.604;2023-08-06T01:57:40;14.60;99.90
4052;DHT22;2040;50.924;11.604;2023-08-06T02:00:06;14.60;99.90
4052;DHT22;2040;50.924;11.604;2023-08-06T02:02:32;14.50;99.90
4052;DHT22;2040;50.924;11.604;2023-08-06T02:04:59;14.40;99.90
4052;DHT22;2040;50.924;11.604;2023-08-06T02:07:24;14.40;99.90
4052;DHT22;2040;50.924;11.604;2023-08-06T02:09:50;14.40;99.90
4052;DHT22;2040;50.924;11.604;2023-08-06T02:12:15;14.40;99.90
4052;DHT22;2040;50.924;11.604;2023-08-06T02:14:41;14.40;99.90
4052;DHT22;2040;50.924;11.604;2023-08-06T02:17:07;14.30;99.90
4052;DHT22;2040;50.924;11.604;2023-08-06T02:19:32;14.30;99.90
4052;DHT22;2040;50.924;11.604;2023-08-06T02:21:58;14.40;99.90
4052;DHT22;2040;50.924;11.604;2023-08-06T02:24:23;14.40;99.90
4052;DHT22;2040;50.924;11.604;2023-08-06T02:26:49;14.30;99.90
4052;DHT22;2040;50.924;11.604;2023-08-06T02:39:13;14.20;99.90
4052;DHT22;2040;50.924;11.604;2023-08-06T02:41:38;14.20;99.90
4052;DHT22;2040;50.924;11.604;2023-08-06T02:44:04;14.10;99.90
4052;DHT22;2040;50.924;11.604;2023-08-06T02:46:29;14.10;99.90
4052;DHT22;2040;50.924;11.604;2023-08-06T02:48:55;14.20;99.90
4052;DHT22;2040;50.924;11.604;2023-08-06T02:51:20;14.20;99.90
4052;DHT22;2040;50.924;11.604;2023-08-06T02:53:48;14.20;99.90
4052;DHT22;2040;50.924;11.604;2023-08-06T02:56:13;14.20;99.90
4052;DHT22;2040;50.924;11.604;2023-08-06T02:58:39;14.20;99.90
4052;DHT22;2040;50.924;11.604;2023-08-06T03:01:05;14.20;99.90
4052;DHT22;2040;50.924;11.604;2023-08-06T03:03:32;14.20;99.90
4052;DHT22;2040;50.924;11.604;2023-08-06T03:05:58;14.20;99.90
4052;DHT22;2040;50.924;11.604;2023-08-06T03:08:24;14.10;99.90
4052;DHT22;2040;50.924;11.604;2023-08-06T03:10:50;14.10;99.90
4052;DHT22;2040;50.924;11.604;2023-08-06T03:13:19;14.10;99.90
4052;DHT22;2040;50.924;11.604;2023-08-06T03:15:58;14.20;99.90
4052;DHT22;2040;50.924;11.604;2023-08-06T03:18:24;14.10;99.90
4052;DHT22;2040;50.924;11.604;2023-08-06T03:20:51;14.00;99.90
4052;DHT22;2040;50.924;11.604;2023-08-06T03:23:17;14.00;99.90
4052;DHT22;2040;50.924;11.604;2023-08-06T03:25:43;14.10;99.90
4052;DHT22;2040;50.924;11.604;2023-08-06T03:28:09;14.10;99.90
4052;DHT22;2040;50.924;11.604;2023-08-06T03:30:34;14.10;99.90
4052;DHT22;2040;50.924;11.604;2023-08-06T03:33:00;14.00;99.90
4052;DHT22;2040;50.924;11.604;2023-08-06T03:35:26;14.10;99.90
4052;DHT22;2040;50.924;11.604;2023-08-06T03:37:51;14.00;99.90
4052;DHT22;2040;50.924;11.604;2023-08-06T03:40:17;14.00;99.90
4052;DHT22;2040;50.924;11.604;2023-08-06T03:42:42;14.00;99.90
4052;DHT22;2040;50.924;11.604;2023-08-06T03:45:08;14.00;99.90
4052;DHT22;2040;50.924;11.604;2023-08-06T03:47:34;14.20;99.90
4052;DHT22;2040;50.924;11.604;2023-08-06T03:50:00;14.10;99.90
4052;DHT22;2040;50.924;11.604;2023-08-06T03:52:25;14.10;99.90
4052;DHT22;2040;50.924;11.604;2023-08-06T03:54:51;14.00;99.90
4052;DHT22;2040;50.924;11.604;2023-08-06T03:57:17;14.00;99.90
4052;DHT22;2040;50.924;11.604;2023-08-06T03:59:42;14.10;99.90
4052;DHT22;2040;50.924;11.604;2023-08-06T04:02:08;14.10;99.90
4052;DHT22;2040;50.924;11.604;2023-08-06T04:04:33;13.90;99.90
4052;DHT22;2040;50.924;11.604;2023-08-06T04:06:59;13.80;99.90
4052;DHT22;2040;50.924;11.604;2023-08-06T04:09:24;13.80;99.90
4052;DHT22;2040;50.924;11.604;2023-08-06T04:11:50;13.80;99.90
4052;DHT22;2040;50.924;11.604;2023-08-06T04:14:15;13.80;99.90
4052;DHT22;2040;50.924;11.604;2023-08-06T04:16:41;13.80;99.90
4052;DHT22;2040;50.924;11.604;2023-08-06T04:19:06;13.80;99.90
4052;DHT22;2040;50.924;11.604;2023-08-06T04:21:32;13.70;99.90
4052;DHT22;2040;50.924;11.604;2023-08-06T04:23:58;13.80;99.90
4052;DHT22;2040;50.924;11.604;2023-08-06T04:26:23;13.90;99.90
4052;DHT22;2040;50.924;11.604;2023-08-06T04:28:49;13.80;99.90
4052;DHT22;2040;50.924;11.604;2023-08-06T04:31:14;13.80;99.90
4052;DHT22;2040;50.924;11.604;2023-08-06T04:33:40;13.90;99.90
4052;DHT22;2040;50.924;11.604;2023-08-06T04:36:06;13.90;99.90
4052;DHT22;2040;50.924;11.604;2023-08-06T04:38:31;13.90;99.90
4052;DHT22;2040;50.924;11.604;2023-08-06T04:40:58;13.90;99.90
4052;DHT22;2040;50.924;11.604;2023-08-06T04:43:23;14.00;99.90
4052;DHT22;2040;50.924;11.604;2023-08-06T04:45:50;14.00;99.90
4052;DHT22;2040;50.924;11.604;2023-08-06T04:48:16;13.90;99.90
4052;DHT22;2040;50.924;11.604;2023-08-06T04:50:46;13.90;99.90
4052;DHT22;2040;50.924;11.604;2023-08-06T04:53:11;13.80;99.90
4052;DHT22;2040;50.924;11.604;2023-08-06T04:55:37;13.90;99.90
4052;DHT22;2040;50.924;11.604;2023-08-06T04:58:03;13.90;99.90
4052;DHT22;2040;50.924;11.604;2023-08-06T05:00:29;14.00;99.90
4052;DHT22;2040;50.924;11.604;2023-08-06T05:02:54;14.00;99.90
4052;DHT22;2040;50.924;11.604;2023-08-06T05:05:20;14.10;99.90
4052;DHT22;2040;50.924;11.604;2023-08-06T05:07:48;14.10;99.90
4052;DHT22;2040;50.924;11.604;2023-08-06T05:10:14;14.10;99.90
4052;DHT22;2040;50.924;11.604;2023-08-06T05:12:40;14.00;99.90
4052;DHT22;2040;50.924;11.604;2023-08-06T05:15:06;14.10;99.90
4052;DHT22;2040;50.924;11.604;2023-08-06T05:17:32;14.10;99.90
4052;DHT22;2040;50.924;11.604;2023-08-06T05:19:57;14.10;99.90
4052;DHT22;2040;50.924;11.604;2023-08-06T05:22:23;14.10;99.90
4052;DHT22;2040;50.924;11.604;2023-08-06T05:24:49;14.10;99.90
4052;DHT22;2040;50.924;11.604;2023-08-06T05:27:14;14.10;99.90
4052;DHT22;2040;50.924;11.604;2023-08-06T05:29:40;14.20;99.90
4052;DHT22;2040;50.924;11.604;2023-08-06T05:32:06;14.20;99.90
4052;DHT22;2040;50.924;11.604;2023-08-06T05:34:31;14.30;99.90
4052;DHT22;2040;50.924;11.604;2023-08-06T05:36:57;14.30;99.90
4052;DHT22;2040;50.924;11.604;2023-08-06T05:39:22;14.30;99.90
4052;DHT22;2040;50.924;11.604;2023-08-06T05:41:48;14.30;99.90
4052;DHT22;2040;50.924;11.604;2023-08-06T05:44:13;14.40;99.90
4052;DHT22;2040;50.924;11.604;2023-08-06T05:46:39;14.30;99.90
4052;DHT22;2040;50.924;11.604;2023-08-06T05:49:04;14.30;99.90
4052;DHT22;2040;50.924;11.604;2023-08-06T05:51:30;14.40;99.90
4052;DHT22;2040;50.924;11.604;2023-08-06T05:53:56;14.40;99.90
4052;DHT22;2040;50.924;11.604;2023-08-06T05:56:21;14.50;99.90
4052;DHT22;2040;50.924;11.604;2023-08-06T05:58:47;14.50;99.90
4052;DHT22;2040;50.924;11.604;2023-08-06T06:01:13;14.60;99.90
4052;DHT22;2040;50.924;11.604;2023-08-06T06:03:38;14.50;99.90
4052;DHT22;2040;50.924;11.604;2023-08-06T06:06:04;14.50;99.90
4052;DHT22;2040;50.924;11.604;2023-08-06T06:08:30;14.60;99.90
4052;DHT22;2040;50.924;11.604;2023-08-06T06:10:55;14.60;99.90
4052;DHT22;2040;50.924;11.604;2023-08-06T06:13:21;14.60;99.90
4052;DHT22;2040;50.924;11.604;2023-08-06T06:15:47;14.60;99.90
4052;DHT22;2040;50.924;11.604;2023-08-06T06:18:13;14.60;99.90
4052;DHT22;2040;50.924;11.604;2023-08-06T06:20:39;14.60;99.90
4052;DHT22;2040;50.924;11.604;2023-08-06T06:23:04;14.60;99.90
4052;DHT22;2040;50.924;11.604;2023-08-06T06:25:30;14.60;99.90
4052;DHT22;2040;50.924;11.604;2023-08-06T06:27:56;14.60;99.90
4052;DHT22;2040;50.924;11.604;2023-08-06T06:30:21;14.60;99.90
4052;DHT22;2040;50.924;11.604;2023-08-06T06:32:50;14.70;99.90
4052;DHT22;2040;50.924;11.604;2023-08-06T06:35:21;14.70;99.90
4052;DHT22;2040;50.924;11.604;2023-08-06T06:37:46;14.80;99.90
4052;DHT22;2040;50.924;11.604;2023-08-06T06:40:12;14.70;99.90
4052;DHT22;2040;50.924;11.604;2023-08-06T06:42:38;14.80;99.90
4052;DHT22;2040;50.924;11.604;2023-08-06T06:45:19;14.80;99.90
4052;DHT22;2040;50.924;11.604;2023-08-06T06:47:46;14.80;99.90
4052;DHT22;2040;50.924;11.604;2023-08-06T06:50:11;14.80;99.90
4052;DHT22;2040;50.924;11.604;2023-08-06T06:52:37;14.90;99.90
4052;DHT22;2040;50.924;11.604;2023-08-06T06:55:03;15.00;99.90
4052;DHT22;2040;50.924;11.604;2023-08-06T06:57:29;15.10;99.90
4052;DHT22;2040;50.924;11.604;2023-08-06T06:59:58;15.20;99.90
4052;DHT22;2040;50.924;11.604;2023-08-06T07:02:24;15.20;99.90
4052;DHT22;2040;50.924;11.604;2023-08-06T07:04:50;15.30;99.90
4052;DHT22;2040;50.924;11.604;2023-08-06T07:07:16;15.40;99.90
4052;DHT22;2040;50.924;11.604;2023-08-06T07:09:41;15.40;99.90
4052;DHT22;2040;50.924;11.604;2023-08-06T07:12:07;15.50;99.90
4052;DHT22;2040;50.924;11.604;2023-08-06T07:14:33;15.60;99.90
4052;DHT22;2040;50.924;11.604;2023-08-06T07:16:58;15.70;99.90
4052;DHT22;2040;50.924;11.604;2023-08-06T07:19:24;15.80;99.90
4052;DHT22;2040;50.924;11.604;2023-08-06T07:21:49;15.90;99.90
4052;DHT22;2040;50.924;11.604;2023-08-06T07:24:15;16.00;99.90
4052;DHT22;2040;50.924;11.604;2023-08-06T07:26:41;16.10;99.90
4052;DHT22;2040;50.924;11.604;2023-08-06T07:29:07;16.10;99.90
4052;DHT22;2040;50.924;11.604;2023-08-06T07:31:32;16.10;99.90
4052;DHT22;2040;50.924;11.604;2023-08-06T07:33:59;16.10;99.90
4052;DHT22;2040;50.924;11.604;2023-08-06T07:36:24;15.90;99.90
4052;DHT22;2040;50.924;11.604;2023-08-06T07:38:50;16.00;99.90
4052;DHT22;2040;50.924;11.604;2023-08-06T07:41:22;16.20;99.90
4052;DHT22;2040;50.924;11.604;2023-08-06T07:43:48;16.30;99.90
4052;DHT22;2040;50.924;11.604;2023-08-06T07:46:13;16.40;99.90
4052;DHT22;2040;50.924;11.604;2023-08-06T07:48:40;16.40;99.90
4052;DHT22;2040;50.924;11.604;2023-08-06T07:51:05;16.50;99.90
4052;DHT22;2040;50.924;11.604;2023-08-06T07:53:31;16.60;99.90
4052;DHT22;2040;50.924;11.604;2023-08-06T07:55:57;16.70;99.90
4052;DHT22;2040;50.924;11.604;2023-08-06T07:58:24;16.80;99.90
4052;DHT22;2040;50.924;11.604;2023-08-06T08:00:50;16.70;99.90
4052;DHT22;2040;50.924;11.604;2023-08-06T08:03:16;16.90;99.90
4052;DHT22;2040;50.924;11.604;2023-08-06T08:05:45;16.80;99.90
4052;DHT22;2040;50.924;11.604;2023-08-06T08:08:10;16.80;99.90
4052;DHT22;2040;50.924;11.604;2023-08-06T08:10:36;16.80;99.90
4052;DHT22;2040;50.924;11.604;2023-08-06T08:13:03;16.70;99.90
4052;DHT22;2040;50.924;11.604;2023-08-06T08:15:30;16.90;99.90
4052;DHT22;2040;50.924;11.604;2023-08-06T08:17:56;16.90;99.90
4052;DHT22;2040;50.924;11.604;2023-08-06T08:20:22;17.00;99.90
4052;DHT22;2040;50.924;11.604;2023-08-06T08:22:48;17.00;99.90
4052;DHT22;2040;50.924;11.604;2023-08-06T08:25:15;17.10;99.90
4052;DHT22;2040;50.924;11.604;2023-08-06T08:27:40;17.10;99.90
4052;DHT22;2040;50.924;11.604;2023-08-06T08:30:06;17.20;99.90
4052;DHT22;2040;50.924;11.604;2023-08-06T08:32:32;17.40;99.90
4052;DHT22;2040;50.924;11.604;2023-08-06T08:34:57;17.60;99.90
4052;DHT22;2040;50.924;11.604;2023-08-06T08:37:23;17.60;99.90
4052;DHT22;2040;50.924;11.604;2023-08-06T08:39:49;17.60;99.90
4052;DHT22;2040;50.924;11.604;2023-08-06T08:42:15;17.80;99.90
4052;DHT22;2040;50.924;11.604;2023-08-06T08:44:42;17.90;99.90
4052;DHT22;2040;50.924;11.604;2023-08-06T08:47:08;18.00;99.90
4052;DHT22;2040;50.924;11.604;2023-08-06T08:49:35;17.90;99.90
4052;DHT22;2040;50.924;11.604;2023-08-06T08:52:02;18.00;99.90
4052;DHT22;2040;50.924;11.604;2023-08-06T08:54:28;18.00;99.90
4052;DHT22;2040;50.924;11.604;2023-08-06T08:56:56;18.20;99.90
4052;DHT22;2040;50.924;11.604;2023-08-06T08:59:22;18.30;99.90
4052;DHT22;2040;50.924;11.604;2023-08-06T09:01:48;18.30;99.90
4052;DHT22;2040;50.924;11.604;2023-08-06T09:04:18;18.30;99.90
4052;DHT22;2040;50.924;11.604;2023-08-06T09:06:47;18.30;99.90
4052;DHT22;2040;50.924;11.604;2023-08-06T09:09:34;18.40;99.90
4052;DHT22;2040;50.924;11.604;2023-08-06T09:12:15;18.50;99.90
4052;DHT22;2040;50.924;11.604;2023-08-06T09:14:41;18.50;99.90
4052;DHT22;2040;50.924;11.604;2023-08-06T09:17:07;18.60;99.90
4052;DHT22;2040;50.924;11.604;2023-08-06T09:19:34;18.40;99.90
4052;DHT22;2040;50.924;11.604;2023-08-06T09:22:11;18.40;99.90
4052;DHT22;2040;50.924;11.604;2023-08-06T09:24:39;18.40;99.90
4052;DHT22;2040;50.924;11.604;2023-08-06T09:27:13;18.50;99.90
4052;DHT22;2040;50.924;11.604;2023-08-06T09:29:43;18.40;99.90
4052;DHT22;2040;50.924;11.604;2023-08-06T09:32:13;18.50;99.90
4052;DHT22;2040;50.924;11.604;2023-08-06T09:34:41;18.70;99.90
4052;DHT22;2040;50.924;11.604;2023-08-06T09:37:09;18.60;99.90
4052;DHT22;2040;50.924;11.604;2023-08-06T09:39:43;18.60;99.90
4052;DHT22;2040;50.924;11.604;2023-08-06T09:42:09;18.70;99.90
4052;DHT22;2040;50.924;11.604;2023-08-06T09:44:35;18.80;99.90
4052;DHT22;2040;50.924;11.604;2023-08-06T09:47:02;18.80;99.90
4052;DHT22;2040;50.924;11.604;2023-08-06T09:49:40;19.10;99.90
4052;DHT22;2040;50.924;11.604;2023-08-06T09:52:20;19.30;99.90
4052;DHT22;2040;50.924;11.604;2023-08-06T09:54:51;19.50;99.90
4052;DHT22;2040;50.924;11.604;2023-08-06T09:57:17;19.60;99.90
4052;DHT22;2040;50.924;11.604;2023-08-06T09:59:43;19.70;99.90
4052;DHT22;2040;50.924;11.604;2023-08-06T10:02:12;19.50;99.90
4052;DHT22;2040;50.924;11.604;2023-08-06T10:04:44;19.70;99.90
4052;DHT22;2040;50.924;11.604;2023-08-06T10:07:13;19.60;99.90
4052;DHT22;2040;50.924;11.604;2023-08-06T10:09:39;19.70;99.90
4052;DHT22;2040;50.924;11.604;2023-08-06T10:12:07;19.90;99.90
4052;DHT22;2040;50.924;11.604;2023-08-06T10:14:58;19.90;99.90
4052;DHT22;2040;50.924;11.604;2023-08-06T10:17:25;19.80;99.90
4052;DHT22;2040;50.924;11.604;2023-08-06T10:19:52;19.50;99.90
4052;DHT22;2040;50.924;11.604;2023-08-06T10:22:24;19.50;99.90
4052;DHT22;2040;50.924;11.604;2023-08-06T10:24:59;19.40;99.90
4052;DHT22;2040;50.924;11.604;2023-08-06T10:27:53;19.20;99.90
4052;DHT22;2040;50.924;11.604;2023-08-06T10:30:48;19.20;99.90
4052;DHT22;2040;50.924;11.604;2023-08-06T10:33:24;19.30;99.90
4052;DHT22;2040;50.924;11.604;2023-08-06T10:36:17;19.40;99.90
4052;DHT22;2040;50.924;11.604;2023-08-06T10:38:49;19.60;99.90
4052;DHT22;2040;50.924;11.604;2023-08-06T10:41:30;19.60;99.90
4052;DHT22;2040;50.924;11.604;2023-08-06T10:44:11;19.60;99.90
4052;DHT22;2040;50.924;11.604;2023-08-06T10:46:57;19.50;99.90
4052;DHT22;2040;50.924;11.604;2023-08-06T10:49:50;19.60;99.90
4052;DHT22;2040;50.924;11.604;2023-08-06T10:52:34;19.60;99.90
4052;DHT22;2040;50.924;11.604;2023-08-06T10:55:05;19.70;99.90
4052;DHT22;2040;50.924;11.604;2023-08-06T10:57:43;19.50;99.90
4052;DHT22;2040;50.924;11.604;2023-08-06T11:00:58;19.20;99.90
4052;DHT22;2040;50.924;11.604;2023-08-06T11:03:28;18.90;99.90
4052;DHT22;2040;50.924;11.604;2023-08-06T11:05:59;18.80;99.90
4052;DHT22;2040;50.924;11.604;2023-08-06T11:08:33;18.70;99.90
4052;DHT22;2040;50.924;11.604;2023-08-06T11:13:47;18.70;99.90
4052;DHT22;2040;50.924;11.604;2023-08-06T11:16:17;18.50;99.90
4052;DHT22;2040;50.924;11.604;2023-08-06T11:18:44;18.40;99.90
4052;DHT22;2040;50.924;11.604;2023-08-06T11:21:10;18.40;99.90
4052;DHT22;2040;50.924;11.604;2023-08-06T11:23:37;18.50;99.90
4052;DHT22;2040;50.924;11.604;2023-08-06T11:26:03;18.80;99.90
4052;DHT22;2040;50.924;11.604;2023-08-06T11:28:29;19.10;99.90
4052;DHT22;2040;50.924;11.604;2023-08-06T11:30:54;19.40;99.90
4052;DHT22;2040;50.924;11.604;2023-08-06T11:33:25;19.90;99.90
4052;DHT22;2040;50.924;11.604;2023-08-06T11:35:52;20.20;99.90
4052;DHT22;2040;50.924;11.604;2023-08-06T11:38:17;20.40;99.90
4052;DHT22;2040;50.924;11.604;2023-08-06T11:40:47;20.70;99.90
4052;DHT22;2040;50.924;11.604;2023-08-06T11:43:14;20.70;99.90
4052;DHT22;2040;50.924;11.604;2023-08-06T11:45:40;20.50;99.90
4052;DHT22;2040;50.924;11.604;2023-08-06T11:48:06;20.40;99.90
4052;DHT22;2040;50.924;11.604;2023-08-06T11:50:37;20.40;99.90
4052;DHT22;2040;50.924;11.604;2023-08-06T11:53:03;20.30;99.90
4052;DHT22;2040;50.924;11.604;2023-08-06T11:55:29;20.30;99.90
4052;DHT22;2040;50.924;11.604;2023-08-06T11:57:55;20.40;99.90
4052;DHT22;2040;50.924;11.604;2023-08-06T12:00:23;20.50;99.90
4052;DHT22;2040;50.924;11.604;2023-08-06T12:02:50;20.50;99.90
4052;DHT22;2040;50.924;11.604;2023-08-06T12:05:21;20.30;99.90
4052;DHT22;2040;50.924;11.604;2023-08-06T12:07:51;20.20;99.90
4052;DHT22;2040;50.924;11.604;2023-08-06T12:10:17;20.20;99.90
4052;DHT22;2040;50.924;11.604;2023-08-06T12:12:45;20.30;99.90
4052;DHT22;2040;50.924;11.604;2023-08-06T12:15:11;20.40;99.90
4052;DHT22;2040;50.924;11.604;2023-08-06T12:17:37;20.30;99.90
4052;DHT22;2040;50.924;11.604;2023-08-06T12:20:04;20.40;99.90
4052;DHT22;2040;50.924;11.604;2023-08-06T12:22:30;20.50;99.90
4052;DHT22;2040;50.924;11.604;2023-08-06T12:25:04;20.80;99.90
4052;DHT22;2040;50.924;11.604;2023-08-06T12:27:36;20.90;99.90
4052;DHT22;2040;50.924;11.604;2023-08-06T12:30:01;21.00;99.90
4052;DHT22;2040;50.924;11.604;2023-08-06T12:32:29;20.70;99.90
4052;DHT22;2040;50.924;11.604;2023-08-06T12:34:55;20.40;99.90
4052;DHT22;2040;50.924;11.604;2023-08-06T12:37:20;20.30;99.90
4052;DHT22;2040;50.924;11.604;2023-08-06T12:39:47;20.10;99.90
4052;DHT22;2040;50.924;11.604;2023-08-06T12:42:12;20.00;99.90
4052;DHT22;2040;50.924;11.604;2023-08-06T12:44:38;19.90;99.90
4052;DHT22;2040;50.924;11.604;2023-08-06T12:47:04;19.30;99.90
4052;DHT22;2040;50.924;11.604;2023-08-06T12:49:29;18.80;99.90
4052;DHT22;2040;50.924;11.604;2023-08-06T12:51:57;18.20;99.90
4052;DHT22;2040;50.924;11.604;2023-08-06T12:54:23;18.00;99.90
4052;DHT22;2040;50.924;11.604;2023-08-06T12:56:49;18.00;99.90
4052;DHT22;2040;50.924;11.604;2023-08-06T12:59:16;17.90;99.90
4052;DHT22;2040;50.924;11.604;2023-08-06T13:01:42;17.70;99.90
4052;DHT22;2040;50.924;11.604;2023-08-06T13:04:08;17.80;99.90
4052;DHT22;2040;50.924;11.604;2023-08-06T13:06:35;17.90;99.90
4052;DHT22;2040;50.924;11.604;2023-08-06T13:09:04;18.40;99.90
4052;DHT22;2040;50.924;11.604;2023-08-06T13:11:31;19.10;99.90
4052;DHT22;2040;50.924;11.604;2023-08-06T13:14:11;19.80;99.90
4052;DHT22;2040;50.924;11.604;2023-08-06T13:16:38;20.20;99.90
4052;DHT22;2040;50.924;11.604;2023-08-06T13:19:06;20.60;99.90
4052;DHT22;2040;50.924;11.604;2023-08-06T13:21:59;20.70;99.90
4052;DHT22;2040;50.924;11.604;2023-08-06T13:24:26;20.60;99.90
4052;DHT22;2040;50.924;11.604;2023-08-06T13:27:15;20.40;99.90
4052;DHT22;2040;50.924;11.604;2023-08-06T13:29:43;20.60;99.90
4052;DHT22;2040;50.924;11.604;2023-08-06T13:32:09;20.90;99.90
4052;DHT22;2040;50.924;11.604;2023-08-06T13:34:35;21.20;99.90
4052;DHT22;2040;50.924;11.604;2023-08-06T13:37:06;21.50;99.90
4052;DHT22;2040;50.924;11.604;2023-08-06T13:39:32;21.60;99.90
4052;DHT22;2040;50.924;11.604;2023-08-06T13:42:23;21.50;99.90
4052;DHT22;2040;50.924;11.604;2023-08-06T13:44:59;21.60;99.90
4052;DHT22;2040;50.924;11.604;2023-08-06T13:47:29;21.50;99.90
4052;DHT22;2040;50.924;11.604;2023-08-06T13:49:59;21.40;99.90
4052;DHT22;2040;50.924;11.604;2023-08-06T13:52:40;21.00;99.90
4052;DHT22;2040;50.924;11.604;2023-08-06T13:55:28;20.40;99.90
4052;DHT22;2040;50.924;11.604;2023-08-06T13:57:53;19.70;99.90
4052;DHT22;2040;50.924;11.604;2023-08-06T14:00:23;19.20;99.90
4052;DHT22;2040;50.924;11.604;2023-08-06T14:02:51;18.90;99.90
4052;DHT22;2040;50.924;11.604;2023-08-06T14:05:17;18.60;99.90
4052;DHT22;2040;50.924;11.604;2023-08-06T14:07:43;18.40;99.90
4052;DHT22;2040;50.924;11.604;2023-08-06T14:10:29;18.20;99.90
4052;DHT22;2040;50.924;11.604;2023-08-06T14:12:55;18.10;99.90
4052;DHT22;2040;50.924;11.604;2023-08-06T14:15:21;18.10;99.90
4052;DHT22;2040;50.924;11.604;2023-08-06T14:17:46;18.10;99.90
4052;DHT22;2040;50.924;11.604;2023-08-06T14:20:19;18.10;99.90
4052;DHT22;2040;50.924;11.604;2023-08-06T14:22:58;18.30;99.90
4052;DHT22;2040;50.924;11.604;2023-08-06T14:25:36;18.20;99.90
4052;DHT22;2040;50.924;11.604;2023-08-06T14:28:21;18.20;99.90
4052;DHT22;2040;50.924;11.604;2023-08-06T14:30:47;18.10;99.90
4052;DHT22;2040;50.924;11.604;2023-08-06T14:33:16;18.00;99.90
4052;DHT22;2040;50.924;11.604;2023-08-06T14:35:51;17.80;99.90
4052;DHT22;2040;50.924;11.604;2023-08-06T14:38:21;17.60;99.90
4052;DHT22;2040;50.924;11.604;2023-08-06T14:40:46;17.40;99.90
4052;DHT22;2040;50.924;11.604;2023-08-06T14:43:12;17.30;99.90
4052;DHT22;2040;50.924;11.604;2023-08-06T14:45:39;17.20;99.90
4052;DHT22;2040;50.924;11.604;2023-08-06T14:48:05;17.00;99.90
4052;DHT22;2040;50.924;11.604;2023-08-06T14:50:31;16.90;99.90
4052;DHT22;2040;50.924;11.604;2023-08-06T14:52:56;16.90;99.90
4052;DHT22;2040;50.924;11.604;2023-08-06T14:55:26;16.90;99.90
4052;DHT22;2040;50.924;11.604;2023-08-06T14:58:01;16.90;99.90
4052;DHT22;2040;50.924;11.604;2023-08-06T15:00:30;17.00;99.90
4052;DHT22;2040;50.924;11.604;2023-08-06T15:02:56;17.10;99.90
4052;DHT22;2040;50.924;11.604;2023-08-06T15:05:21;17.20;99.90
4052;DHT22;2040;50.924;11.604;2023-08-06T15:07:47;17.40;99.90
4052;DHT22;2040;50.924;11.604;2023-08-06T15:10:14;17.70;99.90
4052;DHT22;2040;50.924;11.604;2023-08-06T15:12:40;17.60;99.90
4052;DHT22;2040;50.924;11.604;2023-08-06T15:15:07;17.90;99.90
4052;DHT22;2040;50.924;11.604;2023-08-06T15:17:33;18.20;99.90
4052;DHT22;2040;50.924;11.604;2023-08-06T15:19:59;18.40;99.90
4052;DHT22;2040;50.924;11.604;2023-08-06T15:22:26;18.70;99.90
4052;DHT22;2040;50.924;11.604;2023-08-06T15:24:55;18.90;99.90
4052;DHT22;2040;50.924;11.604;2023-08-06T15:27:21;19.10;99.90
4052;DHT22;2040;50.924;11.604;2023-08-06T15:29:46;19.40;99.90
4052;DHT22;2040;50.924;11.604;2023-08-06T15:32:12;19.30;99.90
4052;DHT22;2040;50.924;11.604;2023-08-06T15:34:39;19.70;99.90
4052;DHT22;2040;50.924;11.604;2023-08-06T15:37:05;20.10;99.90
4052;DHT22;2040;50.924;11.604;2023-08-06T15:39:31;20.20;99.90
4052;DHT22;2040;50.924;11.604;2023-08-06T15:41:57;20.30;99.90
4052;DHT22;2040;50.924;11.604;2023-08-06T15:44:23;20.20;99.90
4052;DHT22;2040;50.924;11.604;2023-08-06T15:46:51;19.90;99.90
4052;DHT22;2040;50.924;11.604;2023-08-06T15:49:17;19.60;99.90
4052;DHT22;2040;50.924;11.604;2023-08-06T15:51:42;19.40;99.90
4052;DHT22;2040;50.924;11.604;2023-08-06T15:54:09;19.00;99.90
4052;DHT22;2040;50.924;11.604;2023-08-06T15:56:35;18.60;99.90
4052;DHT22;2040;50.924;11.604;2023-08-06T15:59:24;18.30;99.90
4052;DHT22;2040;50.924;11.604;2023-08-06T16:01:50;18.00;99.90
4052;DHT22;2040;50.924;11.604;2023-08-06T16:04:16;17.90;99.90
4052;DHT22;2040;50.924;11.604;2023-08-06T16:06:42;17.80;99.90
4052;DHT22;2040;50.924;11.604;2023-08-06T16:09:08;17.70;99.90